Time,TemperatureF,DewpointF,PressureIn,WindDirection,WindDirectionDegrees,WindSpeedMPH,WindSpeedGustMPH,Humidity,HourlyPrecipIn,Conditions,Clouds,dailyrainin,SoftwareType,DateUTC
2013-05-30 00:02:00,75.0,68.0,30.06,SE,135,4.0,6.0,80,0.00,,,0.00,,2013-05-30 04:02:00,
2013-05-30 00:12:00,75.0,68.0,30.06,SE,135,4.0,6.0,80,0.00,,,0.00,,2013-05-30 04:12:00,
2013-05-30 00:23:00,74.0,68.0,30.06,SE,135,1.0,2.0,81,0.00,,,0.00,,2013-05-30 04:23:00,
2013-05-30 00:32:00,74.0,68.0,30.06,SE,135,1.0,3.0,83,0.00,,,0.00,,2013-05-30 04:32:00,
2013-05-30 00:42:00,74.0,68.0,30.06,SE,135,1.0,3.0,83,0.00,,,0.00,,2013-05-30 04:42:00,
2013-05-30 00:53:00,73.0,68.0,30.06,SE,135,1.0,2.0,84,0.00,,,0.00,,2013-05-30 04:53:00,
2013-05-30 01:02:00,73.0,69.0,30.06,SE,135,2.0,3.0,87,0.00,,,0.00,,2013-05-30 05:02:00,
2013-05-30 01:12:00,73.0,69.0,30.06,SE,135,2.0,3.0,87,0.00,,,0.00,,2013-05-30 05:12:00,
2013-05-30 01:22:00,72.0,68.0,30.06,SE,135,2.0,3.0,87,0.00,,,0.00,,2013-05-30 05:22:00,
2013-05-30 01:32:00,72.0,68.0,30.06,SE,135,2.0,4.0,88,0.00,,,0.00,,2013-05-30 05:32:00,
2013-05-30 01:42:00,72.0,68.0,30.06,SE,135,2.0,4.0,88,0.00,,,0.00,,2013-05-30 05:42:00,
2013-05-30 01:52:00,72.0,69.0,30.06,SSE,157,2.0,3.0,89,0.00,,,0.00,,2013-05-30 05:52:00,
2013-05-30 02:01:00,71.0,68.0,30.06,SE,135,3.0,5.0,91,0.00,,,0.00,,2013-05-30 06:01:00,
2013-05-30 02:12:00,71.0,68.0,30.06,SE,135,3.0,5.0,91,0.00,,,0.00,,2013-05-30 06:12:00,
2013-05-30 02:22:00,71.0,68.0,30.06,SE,135,2.0,3.0,91,0.00,,,0.00,,2013-05-30 06:22:00,
2013-05-30 02:32:00,71.0,68.0,30.06,SE,135,1.0,1.0,91,0.00,,,0.00,,2013-05-30 06:32:00,
2013-05-30 02:42:00,71.0,68.0,30.06,SE,135,1.0,1.0,91,0.00,,,0.00,,2013-05-30 06:42:00,
2013-05-30 02:52:00,71.0,69.0,30.07,SE,135,2.0,3.0,92,0.00,,,0.00,,2013-05-30 06:52:00,
2013-05-30 03:01:00,71.0,69.0,30.07,South,180,3.0,6.0,92,0.00,,,0.00,,2013-05-30 07:01:00,
2013-05-30 03:12:00,71.0,69.0,30.07,South,180,3.0,6.0,92,0.00,,,0.00,,2013-05-30 07:12:00,
2013-05-30 03:21:00,70.0,68.0,30.06,SE,135,1.0,3.0,94,0.00,,,0.00,,2013-05-30 07:21:00,
2013-05-30 03:31:00,70.0,68.0,30.07,SE,135,3.0,4.0,94,0.00,,,0.00,,2013-05-30 07:31:00,
2013-05-30 03:42:00,70.0,68.0,30.07,SE,135,3.0,4.0,94,0.00,,,0.00,,2013-05-30 07:42:00,
2013-05-30 03:52:00,70.0,68.0,30.07,SE,135,1.0,2.0,95,0.00,,,0.00,,2013-05-30 07:52:00,
2013-05-30 04:02:00,70.0,68.0,30.07,SE,135,1.0,2.0,93,0.00,,,0.00,,2013-05-30 08:02:00,
2013-05-30 04:11:00,70.0,68.0,30.07,SE,135,1.0,2.0,93,0.00,,,0.00,,2013-05-30 08:11:00,
2013-05-30 04:21:00,70.0,68.0,30.07,ESE,112,2.0,3.0,93,0.00,,,0.00,,2013-05-30 08:21:00,
2013-05-30 04:32:00,70.0,68.0,30.06,SSE,157,2.0,5.0,94,0.00,,,0.00,,2013-05-30 08:32:00,
2013-05-30 04:42:00,70.0,68.0,30.06,SSE,157,2.0,5.0,94,0.00,,,0.00,,2013-05-30 08:42:00,
2013-05-30 04:52:00,70.0,68.0,30.06,SE,135,2.0,5.0,92,0.00,,,0.00,,2013-05-30 08:52:00,
2013-05-30 05:01:00,70.0,68.0,30.06,SE,135,2.0,5.0,92,0.00,,,0.00,,2013-05-30 09:01:00,
2013-05-30 05:11:00,70.0,68.0,30.06,SE,135,2.0,5.0,92,0.00,,,0.00,,2013-05-30 09:11:00,
2013-05-30 05:21:00,70.0,68.0,30.06,SE,135,3.0,5.0,92,0.00,,,0.00,,2013-05-30 09:21:00,
2013-05-30 05:32:00,70.0,68.0,30.07,SE,135,2.0,3.0,92,0.00,,,0.00,,2013-05-30 09:32:00,
2013-05-30 05:42:00,70.0,68.0,30.07,SE,135,2.0,3.0,92,0.00,,,0.00,,2013-05-30 09:42:00,
2013-05-30 05:53:00,70.0,67.0,30.07,SE,135,2.0,5.0,91,0.00,,,0.00,,2013-05-30 09:53:00,
2013-05-30 06:03:00,70.0,67.0,30.07,SE,135,3.0,4.0,91,0.00,,,0.00,,2013-05-30 10:03:00,
2013-05-30 06:12:00,70.0,67.0,30.07,SE,135,3.0,4.0,91,0.00,,,0.00,,2013-05-30 10:12:00,
2013-05-30 06:22:00,70.0,67.0,30.08,SSE,157,3.0,5.0,90,0.00,,,0.00,,2013-05-30 10:22:00,
2013-05-30 06:32:00,71.0,68.0,30.08,SE,135,3.0,6.0,89,0.00,,,0.00,,2013-05-30 10:32:00,
2013-05-30 06:42:00,71.0,68.0,30.08,SE,135,3.0,6.0,89,0.00,,,0.00,,2013-05-30 10:42:00,
2013-05-30 06:52:00,71.0,68.0,30.08,South,180,3.0,6.0,89,0.00,,,0.00,,2013-05-30 10:52:00,
2013-05-30 07:03:00,71.0,68.0,30.08,South,180,3.0,6.0,89,0.00,,,0.00,,2013-05-30 11:03:00,
2013-05-30 07:12:00,71.0,68.0,30.08,South,180,3.0,6.0,89,0.00,,,0.00,,2013-05-30 11:12:00,
2013-05-30 07:22:00,70.0,66.0,30.09,SSE,157,3.0,5.0,88,0.00,,,0.00,,2013-05-30 11:22:00,
2013-05-30 07:32:00,71.0,67.0,30.10,SE,135,2.0,4.0,86,0.00,,,0.00,,2013-05-30 11:32:00,
2013-05-30 07:42:00,71.0,67.0,30.10,SE,135,2.0,4.0,86,0.00,,,0.00,,2013-05-30 11:42:00,
2013-05-30 07:52:00,72.0,67.0,30.10,SE,135,2.0,6.0,84,0.00,,,0.00,,2013-05-30 11:52:00,
2013-05-30 08:01:00,72.0,67.0,30.11,South,180,2.0,6.0,84,0.00,,,0.00,,2013-05-30 12:01:00,
2013-05-30 08:11:00,72.0,67.0,30.11,South,180,2.0,6.0,84,0.00,,,0.00,,2013-05-30 12:11:00,
2013-05-30 08:22:00,74.0,67.0,30.12,SW,225,4.0,7.0,80,0.00,,,0.00,,2013-05-30 12:22:00,
2013-05-30 08:32:00,76.0,67.0,30.12,South,180,2.0,4.0,75,0.00,,,0.00,,2013-05-30 12:32:00,
2013-05-30 08:42:00,76.0,67.0,30.12,South,180,2.0,4.0,75,0.00,,,0.00,,2013-05-30 12:42:00,
2013-05-30 08:52:00,76.0,67.0,30.13,South,180,3.0,6.0,74,0.00,,,0.00,,2013-05-30 12:52:00,
2013-05-30 09:01:00,77.0,66.0,30.13,SE,135,4.0,7.0,69,0.00,,,0.00,,2013-05-30 13:01:00,
2013-05-30 09:11:00,77.0,66.0,30.13,SE,135,4.0,7.0,69,0.00,,,0.00,,2013-05-30 13:11:00,
2013-05-30 09:22:00,79.0,68.0,30.13,SW,225,3.0,6.0,69,0.00,,,0.00,,2013-05-30 13:22:00,
2013-05-30 09:32:00,80.0,68.0,30.14,SE,135,5.0,7.0,67,0.00,,,0.00,,2013-05-30 13:32:00,
2013-05-30 09:42:00,80.0,68.0,30.14,SE,135,5.0,7.0,67,0.00,,,0.00,,2013-05-30 13:42:00,
2013-05-30 09:52:00,81.0,68.0,30.14,SW,225,5.0,9.0,64,0.00,,,0.00,,2013-05-30 13:52:00,
2013-05-30 10:01:00,83.0,68.0,30.14,SW,225,4.0,7.0,61,0.00,,,0.00,,2013-05-30 14:01:00,
2013-05-30 10:11:00,83.0,68.0,30.14,SW,225,4.0,7.0,61,0.00,,,0.00,,2013-05-30 14:11:00,
2013-05-30 10:22:00,83.0,69.0,30.14,South,180,4.0,6.0,62,0.00,,,0.00,,2013-05-30 14:22:00,
2013-05-30 10:32:00,84.0,70.0,30.14,SW,225,2.0,4.0,62,0.00,,,0.00,,2013-05-30 14:32:00,
2013-05-30 10:42:00,84.0,70.0,30.14,SW,225,2.0,4.0,62,0.00,,,0.00,,2013-05-30 14:42:00,
2013-05-30 10:52:00,85.0,69.0,30.14,SW,225,3.0,5.0,59,0.00,,,0.00,,2013-05-30 14:52:00,
2013-05-30 11:01:00,86.0,69.0,30.15,West,270,2.0,5.0,58,0.00,,,0.00,,2013-05-30 15:01:00,
2013-05-30 11:11:00,86.0,69.0,30.15,West,270,2.0,5.0,58,0.00,,,0.00,,2013-05-30 15:11:00,
2013-05-30 11:22:00,86.0,68.0,30.15,SSW,202,3.0,7.0,56,0.00,,,0.00,,2013-05-30 15:22:00,
2013-05-30 11:33:00,86.0,68.0,30.15,SW,225,5.0,7.0,55,0.00,,,0.00,,2013-05-30 15:33:00,
2013-05-30 11:42:00,86.0,68.0,30.15,South,180,1.0,3.0,56,0.00,,,0.00,,2013-05-30 15:42:00,
2013-05-30 11:52:00,86.0,68.0,30.15,South,180,1.0,3.0,56,0.00,,,0.00,,2013-05-30 15:52:00,
2013-05-30 12:03:00,87.0,69.0,30.15,South,180,2.0,5.0,55,0.00,,,0.00,,2013-05-30 16:03:00,
2013-05-30 12:12:00,87.0,69.0,30.14,SSW,202,5.0,9.0,56,0.00,,,0.00,,2013-05-30 16:12:00,
2013-05-30 12:22:00,87.0,69.0,30.14,SSW,202,5.0,9.0,56,0.00,,,0.00,,2013-05-30 16:22:00,
2013-05-30 12:33:00,86.0,68.0,30.15,South,180,5.0,10.0,56,0.00,,,0.00,,2013-05-30 16:33:00,
2013-05-30 12:42:00,85.0,68.0,30.13,SSW,202,5.0,10.0,57,0.00,,,0.00,,2013-05-30 16:42:00,
2013-05-30 12:52:00,85.0,68.0,30.13,SSW,202,5.0,10.0,57,0.00,,,0.00,,2013-05-30 16:52:00,
2013-05-30 13:02:00,86.0,68.0,30.13,SE,135,5.0,7.0,56,0.00,,,0.00,,2013-05-30 17:02:00,
2013-05-30 13:11:00,86.0,68.0,30.13,SE,135,5.0,7.0,56,0.00,,,0.00,,2013-05-30 17:11:00,
2013-05-30 13:22:00,87.0,68.0,30.14,WSW,247,7.0,13.0,54,0.00,,,0.00,,2013-05-30 17:22:00,
2013-05-30 13:32:00,87.0,69.0,30.13,West,270,5.0,11.0,55,0.00,,,0.00,,2013-05-30 17:32:00,
2013-05-30 13:42:00,87.0,69.0,30.13,West,270,5.0,11.0,55,0.00,,,0.00,,2013-05-30 17:42:00,
2013-05-30 13:52:00,87.0,69.0,30.14,SSE,157,6.0,12.0,55,0.00,,,0.00,,2013-05-30 17:52:00,
2013-05-30 14:02:00,87.0,69.0,30.13,South,180,1.0,5.0,55,0.00,,,0.00,,2013-05-30 18:02:00,
2013-05-30 14:11:00,87.0,69.0,30.13,South,180,1.0,5.0,55,0.00,,,0.00,,2013-05-30 18:11:00,
2013-05-30 14:21:00,85.0,68.0,30.13,South,180,6.0,12.0,56,0.00,,,0.00,,2013-05-30 18:21:00,
2013-05-30 14:32:00,85.0,69.0,30.12,SW,225,3.0,6.0,59,0.00,,,0.00,,2013-05-30 18:32:00,
2013-05-30 14:42:00,85.0,69.0,30.12,SW,225,3.0,6.0,59,0.00,,,0.00,,2013-05-30 18:42:00,
2013-05-30 14:52:00,85.0,69.0,30.11,SSE,157,2.0,6.0,59,0.00,,,0.00,,2013-05-30 18:52:00,
2013-05-30 15:01:00,85.0,69.0,30.10,SSW,202,6.0,13.0,59,0.00,,,0.00,,2013-05-30 19:01:00,
2013-05-30 15:11:00,85.0,69.0,30.10,SSW,202,6.0,13.0,59,0.00,,,0.00,,2013-05-30 19:11:00,
2013-05-30 15:23:00,86.0,70.0,30.10,South,180,6.0,12.0,59,0.00,,,0.00,,2013-05-30 19:23:00,
2013-05-30 15:32:00,88.0,69.0,30.10,SE,135,5.0,8.0,54,0.00,,,0.00,,2013-05-30 19:32:00,
2013-05-30 15:42:00,88.0,69.0,30.10,SE,135,5.0,8.0,54,0.00,,,0.00,,2013-05-30 19:42:00,
2013-05-30 15:52:00,87.0,68.0,30.10,South,180,4.0,7.0,54,0.00,,,0.00,,2013-05-30 19:52:00,
2013-05-30 16:01:00,87.0,69.0,30.10,SSW,202,3.0,6.0,56,0.00,,,0.00,,2013-05-30 20:01:00,
2013-05-30 16:11:00,87.0,69.0,30.10,SSW,202,3.0,6.0,56,0.00,,,0.00,,2013-05-30 20:11:00,
2013-05-30 16:22:00,86.0,68.0,30.09,SW,225,3.0,7.0,56,0.00,,,0.00,,2013-05-30 20:22:00,
2013-05-30 16:33:00,86.0,68.0,30.09,SW,225,3.0,7.0,56,0.00,,,0.00,,2013-05-30 20:33:00,
2013-05-30 16:42:00,86.0,68.0,30.09,SW,225,3.0,7.0,56,0.00,,,0.00,,2013-05-30 20:42:00,
2013-05-30 16:52:00,85.0,69.0,30.08,SE,135,5.0,9.0,59,0.00,,,0.00,,2013-05-30 20:52:00,
2013-05-30 17:01:00,85.0,69.0,30.07,South,180,5.0,10.0,59,0.00,,,0.00,,2013-05-30 21:01:00,
2013-05-30 17:11:00,85.0,70.0,30.06,SW,225,2.0,4.0,61,0.00,,,0.00,,2013-05-30 21:11:00,
2013-05-30 17:22:00,85.0,70.0,30.06,SW,225,2.0,4.0,61,0.00,,,0.00,,2013-05-30 21:22:00,
2013-05-30 17:33:00,85.0,70.0,30.06,SSE,157,2.0,6.0,61,0.00,,,0.00,,2013-05-30 21:33:00,
2013-05-30 17:42:00,85.0,70.0,30.06,SSE,157,2.0,6.0,61,0.00,,,0.00,,2013-05-30 21:42:00,
2013-05-30 17:53:00,84.0,69.0,30.05,SE,135,8.0,14.0,60,0.00,,,0.00,,2013-05-30 21:53:00,
2013-05-30 18:02:00,84.0,69.0,30.06,WSW,247,5.0,12.0,61,0.00,,,0.00,,2013-05-30 22:02:00,
2013-05-30 18:12:00,84.0,69.0,30.06,WSW,247,5.0,12.0,61,0.00,,,0.00,,2013-05-30 22:12:00,
2013-05-30 18:22:00,84.0,70.0,30.05,South,180,6.0,9.0,63,0.00,,,0.00,,2013-05-30 22:22:00,
2013-05-30 18:33:00,85.0,70.0,30.03,South,180,6.0,18.0,62,0.00,,,0.00,,2013-05-30 22:33:00,
2013-05-30 18:42:00,84.0,69.0,30.05,SE,135,6.0,12.0,61,0.00,,,0.00,,2013-05-30 22:42:00,
2013-05-30 18:52:00,84.0,69.0,30.05,SE,135,6.0,12.0,61,0.00,,,0.00,,2013-05-30 22:52:00,
2013-05-30 19:02:00,85.0,70.0,30.03,SW,225,5.0,11.0,60,0.00,,,0.00,,2013-05-30 23:02:00,
2013-05-30 19:11:00,85.0,70.0,30.03,SW,225,5.0,11.0,60,0.00,,,0.00,,2013-05-30 23:11:00,
2013-05-30 19:22:00,85.0,70.0,30.03,South,180,4.0,7.0,60,0.00,,,0.00,,2013-05-30 23:22:00,
2013-05-30 19:32:00,85.0,70.0,30.03,SW,225,4.0,10.0,61,0.00,,,0.00,,2013-05-30 23:32:00,
2013-05-30 19:41:00,85.0,70.0,30.03,SW,225,4.0,10.0,61,0.00,,,0.00,,2013-05-30 23:41:00,
2013-05-30 19:52:00,84.0,69.0,30.03,ESE,112,4.0,9.0,61,0.00,,,0.00,,2013-05-30 23:52:00,
2013-05-30 20:01:00,82.0,69.0,30.03,South,180,3.0,8.0,64,0.00,,,0.00,,2013-05-31 00:01:00,
2013-05-30 20:11:00,82.0,69.0,30.03,SE,135,3.0,6.0,65,0.00,,,0.00,,2013-05-31 00:11:00,
2013-05-30 20:22:00,82.0,69.0,30.03,SE,135,3.0,6.0,65,0.00,,,0.00,,2013-05-31 00:22:00,
2013-05-30 20:32:00,81.0,69.0,30.02,South,180,5.0,10.0,66,0.00,,,0.00,,2013-05-31 00:32:00,
2013-05-30 20:42:00,81.0,69.0,30.02,South,180,5.0,10.0,66,0.00,,,0.00,,2013-05-31 00:42:00,
2013-05-30 20:52:00,81.0,69.0,30.02,South,180,5.0,10.0,66,0.00,,,0.00,,2013-05-31 00:52:00,
2013-05-30 21:01:00,81.0,69.0,30.02,South,180,5.0,10.0,66,0.00,,,0.00,,2013-05-31 01:01:00,
2013-05-30 21:12:00,81.0,69.0,30.02,South,180,5.0,10.0,66,0.00,,,0.00,,2013-05-31 01:12:00,
2013-05-30 21:21:00,80.0,70.0,30.03,ESE,112,4.0,6.0,71,0.00,,,0.00,,2013-05-31 01:21:00,
2013-05-30 21:32:00,79.0,69.0,30.03,SSE,157,3.0,6.0,71,0.00,,,0.00,,2013-05-31 01:32:00,
2013-05-30 21:42:00,79.0,69.0,30.03,South,180,1.0,4.0,72,0.00,,,0.00,,2013-05-31 01:42:00,
2013-05-30 21:52:00,79.0,69.0,30.03,South,180,1.0,4.0,72,0.00,,,0.00,,2013-05-31 01:52:00,
2013-05-30 22:02:00,79.0,69.0,30.03,South,180,1.0,4.0,72,0.00,,,0.00,,2013-05-31 02:02:00,
2013-05-30 22:11:00,79.0,69.0,30.03,South,180,1.0,4.0,72,0.00,,,0.00,,2013-05-31 02:11:00,
2013-05-30 22:21:00,78.0,71.0,30.03,SE,135,3.0,7.0,79,0.00,,,0.00,,2013-05-31 02:21:00,
2013-05-30 22:32:00,78.0,71.0,30.03,SSE,157,4.0,10.0,79,0.00,,,0.00,,2013-05-31 02:32:00,
2013-05-30 22:42:00,78.0,71.0,30.03,SSE,157,4.0,10.0,79,0.00,,,0.00,,2013-05-31 02:42:00,
2013-05-30 22:51:00,78.0,71.0,30.03,SSE,157,4.0,10.0,79,0.00,,,0.00,,2013-05-31 02:51:00,
2013-05-30 23:01:00,77.0,70.0,30.05,SSE,157,4.0,9.0,79,0.00,,,0.00,,2013-05-31 03:01:00,
2013-05-30 23:11:00,77.0,70.0,30.05,SSE,157,4.0,9.0,79,0.00,,,0.00,,2013-05-31 03:11:00,
2013-05-30 23:21:00,77.0,70.0,30.05,SE,135,3.0,8.0,79,0.00,,,0.00,,2013-05-31 03:21:00,
2013-05-30 23:33:00,77.0,70.0,30.06,South,180,5.0,7.0,79,0.00,,,0.00,,2013-05-31 03:33:00,
2013-05-30 23:43:00,77.0,70.0,30.06,South,180,5.0,7.0,79,0.00,,,0.00,,2013-05-31 03:43:00,
2013-05-30 23:53:00,77.0,70.0,30.05,South,180,4.0,9.0,79,0.00,,,0.00,,2013-05-31 03:53:00,